This is the latest recevied weather packets stored in our database for station/object VE3TEJ. If no packets are shown the sender has not sent any weather packets the latest 1 day(s).
| Time | Temp. | Humidity | Pressure | Rain* | Wind** | Luminosity | Snow |
|---|---|---|---|---|---|---|---|
| 1778033947 | 8.89° C | 90% | 1007.3 hPa | 0 mm | 0.45 m/s, 280° | - | - |
| 1778033647 | 8.89° C | 90% | 1007.2 hPa | 0 mm | 0.45 m/s, 285° | - | - |
| 1778033349 | 8.89° C | 90% | 1007.2 hPa | 0 mm | 0 m/s | - | - |
| 1778033048 | 8.89° C | 89% | 1007.4 hPa | 0 mm | 0.45 m/s, 272° | - | - |
| 1778032748 | 8.89° C | 89% | 1007.5 hPa | 0 mm | 0 m/s | - | - |
| 1778032447 | 8.89° C | 89% | 1007.3 hPa | 0 mm | 0.45 m/s, 280° | - | - |
| 1778032147 | 8.89° C | 89% | 1007.3 hPa | 0 mm | 0.45 m/s, 293° | - | - |
| 1778031849 | 9.44° C | 88% | 1007.3 hPa | 0 mm | 0.45 m/s, 277° | - | - |
| 1778031548 | 9.44° C | 88% | 1007.1 hPa | 0 mm | 0.45 m/s, 278° | - | - |
| 1778031248 | 9.44° C | 88% | 1007.1 hPa | 0 mm | 0.45 m/s, 282° | - | - |
| 1778030948 | 9.44° C | 88% | 1007.1 hPa | 0 mm | 0.45 m/s, 284° | - | - |
| 1778030648 | 9.44° C | 87% | 1007 hPa | 0 mm | 0.45 m/s, 287° | - | - |
| 1778030347 | 9.44° C | 87% | 1007.1 hPa | 0 mm | 0.45 m/s, 278° | - | - |
| 1778030047 | 9.44° C | 86% | 1006.9 hPa | 0 mm | 0.45 m/s, 270° | - | - |
| 1778029749 | 9.44° C | 86% | 1007 hPa | 0 mm | 0 m/s | - | - |
| 1778029448 | 9.44° C | 85% | 1007 hPa | 0 mm | 0 m/s | - | - |
| 1778029148 | 9.44° C | 85% | 1006.6 hPa | 0 mm | 0 m/s | - | - |
| 1778028847 | 9.44° C | 84% | 1006.6 hPa | 0 mm | 0 m/s | - | - |
| 1778028547 | 9.44° C | 83% | 1006.8 hPa | 0 mm | 0 m/s | - | - |
| 1778028249 | 9.44° C | 82% | 1006.7 hPa | 0 mm | 0 m/s | - | - |
| 1778027948 | 9.44° C | 82% | 1006.6 hPa | 0 mm | 0 m/s | - | - |
| 1778027648 | 9.44° C | 81% | 1006.5 hPa | 0 mm | 0.45 m/s, 283° | - | - |
| 1778027347 | 10° C | 80% | 1006.2 hPa | 0 mm | 0 m/s | - | - |
| 1778027047 | 10° C | 80% | 1006.3 hPa | 0 mm | 0.45 m/s, 291° | - | - |
| 1778026749 | 10° C | 79% | 1006.5 hPa | 0 mm | 0 m/s | - | - |
* Rain latest hour (hover to see other rain measurements)
** Current wind speed in m/s (hover to see current wind gust speed)